Test XHTML 1.0 Strict Page for WU-History Testing
Station Historical Data
 
Daily Summary for August 30, 2016 Units:  Both    English   Metric
« Previous Day
Next Day »
Daily Weekly Monthly Yearly Custom
  Current: High: Low: Average:
Temperature: 57.2 °F /  14 °C 71.1 °F /  21.7 °C 47.3 °F /  8.5 °C 58.8 °F /  14.9 °C
Dew Point: 57.2 °F /  14 °C 63.3 °F /  17.4 °C 47.3 °F /  8.5 °C 56 °F /  13.3 °C
Humidity: 100 % 100 % 71 % 91 %
Wind Speed: 0.0 mph /  0 km/h 8.6 mph /  13.8 km/h - 1 mph /  1.6 km/h
Wind Gust: 0.0 mph /  0 km/h 8.6 mph /  13.8 km/h - -
Wind:Calm - - SSW
Pressure: 30.17 in /  1021.6 hPa 30.28 in /  1025.3 hPa 30.15 in /  1020.9 hPa -
Precipitation: 0.00 in /  0 mm      
Historical Graphs
 
 
Weather-Above Climate History
Untitled
Tabular Data for August 30, 2016
Time Temperature Dew Point Pressure Wind Wind Speed Wind Gust Humidity Rainfall Rate (Hourly) solar Conditions
00:02 51.3 °F /  10.7 °C 51.3 °F /  10.7 °C 30.27 in /  1024.9 hPa Calm     100 % 0.00 in /  0 mm 0.0 W/m2 CLR
00:07 50.9 °F /  10.5 °C 50.9 °F /  10.5 °C 30.26 in /  1024.6 hPa Calm     100 % 0.00 in /  0 mm 8.0 W/m2 CLR
00:12 50.9 °F /  10.5 °C 50.9 °F /  10.5 °C 30.26 in /  1024.6 hPa Calm     100 % 0.00 in /  0 mm 15.0 W/m2 CLR
00:17 50.7 °F /  10.4 °C 50.7 °F /  10.4 °C 30.27 in /  1024.9 hPa Calm     100 % 0.00 in /  0 mm 0.0 W/m2 CLR
00:22 50.9 °F /  10.5 °C 50.9 °F /  10.5 °C 30.26 in /  1024.6 hPa Calm     100 % 0.00 in /  0 mm 8.0 W/m2 CLR
00:27 50.7 °F /  10.4 °C 50.7 °F /  10.4 °C 30.26 in /  1024.6 hPa Calm     100 % 0.00 in /  0 mm 6.0 W/m2 CLR
00:32 50.4 °F /  10.2 °C 50.4 °F /  10.2 °C 30.26 in /  1024.6 hPa Calm     100 % 0.00 in /  0 mm 0.0 W/m2 CLR
00:37 50.4 °F /  10.2 °C 50.4 °F /  10.2 °C 30.26 in /  1024.6 hPa Calm     100 % 0.00 in /  0 mm 0.0 W/m2 CLR
00:42 50.4 °F /  10.2 °C 50.4 °F /  10.2 °C 30.26 in /  1024.6 hPa Calm     100 % 0.00 in /  0 mm 6.0 W/m2 CLR
00:47 50.5 °F /  10.3 °C 50.5 °F /  10.3 °C 30.26 in /  1024.6 hPa Calm     100 % 0.00 in /  0 mm 0.0 W/m2 CLR
00:52 50.2 °F /  10.1 °C 50.2 °F /  10.1 °C 30.26 in /  1024.6 hPa Calm     100 % 0.00 in /  0 mm 0.0 W/m2 CLR
00:57 50.0 °F /  10 °C 50.0 °F /  10 °C 30.26 in /  1024.6 hPa Calm     100 % 0.00 in /  0 mm 16.0 W/m2 CLR
01:07 50.0 °F /  10 °C 50.0 °F /  10 °C 30.26 in /  1024.6 hPa Calm     100 % 0.00 in /  0 mm 0.0 W/m2 RA
01:12 50.0 °F /  10 °C 50.0 °F /  10 °C 30.27 in /  1024.9 hPa Calm     100 % 0.00 in /  0 mm 8.0 W/m2 CLR
01:17 49.8 °F /  9.9 °C 49.8 °F /  9.9 °C 30.27 in /  1024.9 hPa Calm     100 % 0.00 in /  0 mm 0.0 W/m2 CLR
01:22 50.0 °F /  10 °C 50.0 °F /  10 °C 30.26 in /  1024.6 hPa Calm     100 % 0.00 in /  0 mm 0.0 W/m2 CLR
01:27 50.0 °F /  10 °C 50.0 °F /  10 °C 30.26 in /  1024.6 hPa Calm     100 % 0.00 in /  0 mm 0.0 W/m2 CLR
01:32 49.6 °F /  9.8 °C 49.6 °F /  9.8 °C 30.26 in /  1024.6 hPa Calm     100 % 0.00 in /  0 mm 19.0 W/m2 CLR
01:37 49.5 °F /  9.7 °C 49.5 °F /  9.7 °C 30.26 in /  1024.6 hPa Calm     100 % 0.00 in /  0 mm 0.0 W/m2 CLR
01:42 49.5 °F /  9.7 °C 49.5 °F /  9.7 °C 30.26 in /  1024.6 hPa Calm     100 % 0.00 in /  0 mm 0.0 W/m2 CLR
01:47 49.3 °F /  9.6 °C 49.3 °F /  9.6 °C 30.26 in /  1024.6 hPa Calm     100 % 0.00 in /  0 mm 22.0 W/m2 CLR
01:52 49.3 °F /  9.6 °C 49.3 °F /  9.6 °C 30.26 in /  1024.6 hPa Calm     100 % 0.00 in /  0 mm 0.0 W/m2 CLR
01:57 49.1 °F /  9.5 °C 49.1 °F /  9.5 °C 30.26 in /  1024.6 hPa Calm     100 % 0.00 in /  0 mm 0.0 W/m2 CLR
02:02 49.1 °F /  9.5 °C 49.1 °F /  9.5 °C 30.26 in /  1024.6 hPa Calm     100 % 0.00 in /  0 mm 8.0 W/m2 CLR
02:07 49.1 °F /  9.5 °C 49.1 °F /  9.5 °C 30.26 in /  1024.6 hPa Calm     100 % 0.00 in /  0 mm 9.0 W/m2 CLR
02:12 48.9 °F /  9.4 °C 48.9 °F /  9.4 °C 30.26 in /  1024.6 hPa Calm     100 % 0.00 in /  0 mm 0.0 W/m2 CLR
02:17 48.9 °F /  9.4 °C 48.9 °F /  9.4 °C 30.26 in /  1024.6 hPa Calm     100 % 0.00 in /  0 mm 6.0 W/m2 CLR
02:22 48.9 °F /  9.4 °C 48.9 °F /  9.4 °C 30.26 in /  1024.6 hPa Calm     100 % 0.00 in /  0 mm 32.0 W/m2 CLR
02:27 49.1 °F /  9.5 °C 49.1 °F /  9.5 °C 30.26 in /  1024.6 hPa Calm     100 % 0.00 in /  0 mm 0.0 W/m2 CLR
02:32 49.1 °F /  9.5 °C 49.1 °F /  9.5 °C 30.26 in /  1024.6 hPa Calm     100 % 0.00 in /  0 mm 27.0 W/m2 CLR
02:37 48.7 °F /  9.3 °C 48.7 °F /  9.3 °C 30.26 in /  1024.6 hPa Calm     100 % 0.00 in /  0 mm 8.0 W/m2 CLR
02:42 48.6 °F /  9.2 °C 48.6 °F /  9.2 °C 30.26 in /  1024.6 hPa Calm     100 % 0.00 in /  0 mm 24.0 W/m2 CLR
02:48 48.6 °F /  9.2 °C 48.6 °F /  9.2 °C 30.26 in /  1024.6 hPa Calm     100 % 0.00 in /  0 mm 0.0 W/m2 CLR
02:53 48.6 °F /  9.2 °C 48.6 °F /  9.2 °C 30.26 in /  1024.6 hPa Calm     100 % 0.00 in /  0 mm 28.0 W/m2 CLR
02:58 48.6 °F /  9.2 °C 48.6 °F /  9.2 °C 30.26 in /  1024.6 hPa Calm     100 % 0.00 in /  0 mm 28.0 W/m2 CLR
03:03 48.4 °F /  9.1 °C 48.4 °F /  9.1 °C 30.26 in /  1024.6 hPa Calm     100 % 0.00 in /  0 mm 0.0 W/m2 CLR
03:08 48.2 °F /  9 °C 48.2 °F /  9 °C 30.26 in /  1024.6 hPa Calm     100 % 0.00 in /  0 mm 13.0 W/m2 CLR
03:13 48.0 °F /  8.9 °C 48.0 °F /  8.9 °C 30.26 in /  1024.6 hPa Calm     100 % 0.00 in /  0 mm 7.0 W/m2 CLR
03:18 48.2 °F /  9 °C 48.2 °F /  9 °C 30.26 in /  1024.6 hPa Calm     100 % 0.00 in /  0 mm 0.0 W/m2 CLR
03:23 48.2 °F /  9 °C 48.2 °F /  9 °C 30.26 in /  1024.6 hPa Calm     100 % 0.00 in /  0 mm 0.0 W/m2 CLR
03:28 48.2 °F /  9 °C 48.2 °F /  9 °C 30.26 in /  1024.6 hPa Calm     100 % 0.00 in /  0 mm 18.0 W/m2 CLR
03:33 47.8 °F /  8.8 °C 47.8 °F /  8.8 °C 30.26 in /  1024.6 hPa Calm     100 % 0.00 in /  0 mm 0.0 W/m2 CLR
03:38 47.7 °F /  8.7 °C 47.7 °F /  8.7 °C 30.26 in /  1024.6 hPa Calm     100 % 0.00 in /  0 mm 0.0 W/m2 CLR
03:43 47.8 °F /  8.8 °C 47.8 °F /  8.8 °C 30.26 in /  1024.6 hPa Calm     100 % 0.00 in /  0 mm 0.0 W/m2 CLR
03:48 48.0 °F /  8.9 °C 48.0 °F /  8.9 °C 30.26 in /  1024.6 hPa Calm     100 % 0.00 in /  0 mm 18.0 W/m2 CLR
03:53 47.7 °F /  8.7 °C 47.7 °F /  8.7 °C 30.26 in /  1024.6 hPa Calm     100 % 0.00 in /  0 mm 0.0 W/m2 CLR
03:58 47.7 °F /  8.7 °C 47.7 °F /  8.7 °C 30.26 in /  1024.6 hPa Calm     100 % 0.00 in /  0 mm 0.0 W/m2 CLR
04:03 47.7 °F /  8.7 °C 47.7 °F /  8.7 °C 30.26 in /  1024.6 hPa Calm     100 % 0.00 in /  0 mm 10.0 W/m2 CLR
04:08 47.7 °F /  8.7 °C 47.7 °F /  8.7 °C 30.26 in /  1024.6 hPa Calm     100 % 0.00 in /  0 mm 0.0 W/m2 CLR
04:13 47.5 °F /  8.6 °C 47.5 °F /  8.6 °C 30.26 in /  1024.6 hPa Calm     100 % 0.00 in /  0 mm 0.0 W/m2 CLR
04:18 47.5 °F /  8.6 °C 47.5 °F /  8.6 °C 30.26 in /  1024.6 hPa Calm     100 % 0.00 in /  0 mm 6.0 W/m2 CLR
04:23 47.5 °F /  8.6 °C 47.5 °F /  8.6 °C 30.26 in /  1024.6 hPa Calm     100 % 0.00 in /  0 mm 8.0 W/m2 CLR
04:28 47.3 °F /  8.5 °C 47.3 °F /  8.5 °C 30.26 in /  1024.6 hPa Calm     100 % 0.00 in /  0 mm 0.0 W/m2 CLR
04:33 47.5 °F /  8.6 °C 47.5 °F /  8.6 °C 30.26 in /  1024.6 hPa Calm     100 % 0.00 in /  0 mm 6.0 W/m2 CLR
04:38 47.3 °F /  8.5 °C 47.3 °F /  8.5 °C 30.26 in /  1024.6 hPa Calm     100 % 0.00 in /  0 mm 7.0 W/m2 CLR
04:43 47.5 °F /  8.6 °C 47.5 °F /  8.6 °C 30.26 in /  1024.6 hPa Calm     100 % 0.00 in /  0 mm 7.0 W/m2 CLR
04:53 47.7 °F /  8.7 °C 47.7 °F /  8.7 °C 30.26 in /  1024.6 hPa Calm     100 % 0.00 in /  0 mm 42.0 W/m2 CLR
04:58 47.5 °F /  8.6 °C 47.5 °F /  8.6 °C 30.26 in /  1024.6 hPa Calm     100 % 0.00 in /  0 mm 20.0 W/m2 CLR
05:03 47.5 °F /  8.6 °C 47.5 °F /  8.6 °C 30.26 in /  1024.6 hPa Calm     100 % 0.00 in /  0 mm 0.0 W/m2 CLR
05:08 47.7 °F /  8.7 °C 47.7 °F /  8.7 °C 30.26 in /  1024.6 hPa Calm     100 % 0.00 in /  0 mm 10.0 W/m2 CLR
05:13 47.7 °F /  8.7 °C 47.7 °F /  8.7 °C 30.26 in /  1024.6 hPa Calm     100 % 0.00 in /  0 mm 20.0 W/m2 CLR
05:18 47.7 °F /  8.7 °C 47.7 °F /  8.7 °C 30.26 in /  1024.6 hPa Calm     100 % 0.00 in /  0 mm 0.0 W/m2 CLR
05:23 47.5 °F /  8.6 °C 47.5 °F /  8.6 °C 30.26 in /  1024.6 hPa Calm     100 % 0.00 in /  0 mm 0.0 W/m2 CLR
05:28 47.5 °F /  8.6 °C 47.5 °F /  8.6 °C 30.26 in /  1024.6 hPa Calm     100 % 0.00 in /  0 mm 31.0 W/m2 CLR
05:33 47.3 °F /  8.5 °C 47.3 °F /  8.5 °C 30.26 in /  1024.6 hPa Calm     100 % 0.00 in /  0 mm 0.0 W/m2 CLR
05:38 47.3 °F /  8.5 °C 47.3 °F /  8.5 °C 30.26 in /  1024.6 hPa Calm     100 % 0.00 in /  0 mm 0.0 W/m2 CLR
05:43 47.7 °F /  8.7 °C 47.7 °F /  8.7 °C 30.26 in /  1024.6 hPa Calm     100 % 0.00 in /  0 mm 0.0 W/m2 CLR
05:48 47.5 °F /  8.6 °C 47.5 °F /  8.6 °C 30.26 in /  1024.6 hPa Calm     100 % 0.00 in /  0 mm 43.0 W/m2 CLR
05:52 47.7 °F /  8.7 °C 47.7 °F /  8.7 °C 30.26 in /  1024.6 hPa Calm     100 % 0.00 in /  0 mm 0.0 W/m2 CLR
05:57 47.7 °F /  8.7 °C 47.7 °F /  8.7 °C 30.26 in /  1024.6 hPa Calm     100 % 0.00 in /  0 mm 0.0 W/m2 CLR
06:02 47.7 °F /  8.7 °C 47.7 °F /  8.7 °C 30.26 in /  1024.6 hPa Calm     100 % 0.00 in /  0 mm 45.0 W/m2 CLR
06:07 47.7 °F /  8.7 °C 47.7 °F /  8.7 °C 30.26 in /  1024.6 hPa Calm     100 % 0.00 in /  0 mm 0.0 W/m2 CLR
06:12 47.7 °F /  8.7 °C 47.7 °F /  8.7 °C 30.26 in /  1024.6 hPa Calm     100 % 0.00 in /  0 mm 8.0 W/m2 CLR
06:17 47.7 °F /  8.7 °C 47.7 °F /  8.7 °C 30.26 in /  1024.6 hPa Calm     100 % 0.00 in /  0 mm 7.0 W/m2 CLR
06:22 47.7 °F /  8.7 °C 47.7 °F /  8.7 °C 30.26 in /  1024.6 hPa Calm     100 % 0.00 in /  0 mm 44.0 W/m2 CLR
06:27 47.7 °F /  8.7 °C 47.7 °F /  8.7 °C 30.26 in /  1024.6 hPa Calm     100 % 0.00 in /  0 mm 0.3 W/m2 CLR
06:32 47.7 °F /  8.7 °C 47.7 °F /  8.7 °C 30.26 in /  1024.6 hPa Calm     100 % 0.00 in /  0 mm 66.0 W/m2 CLR
06:37 47.7 °F /  8.7 °C 47.7 °F /  8.7 °C 30.26 in /  1024.6 hPa Calm     100 % 0.00 in /  0 mm 80.0 W/m2 CLR
06:42 47.7 °F /  8.7 °C 47.7 °F /  8.7 °C 30.27 in /  1024.9 hPa Calm     100 % 0.00 in /  0 mm 13.0 W/m2 CLR
06:47 47.7 °F /  8.7 °C 47.7 °F /  8.7 °C 30.26 in /  1024.6 hPa Calm     100 % 0.00 in /  0 mm 1.3 W/m2 CLR
06:52 48.0 °F /  8.9 °C 48.0 °F /  8.9 °C 30.27 in /  1024.9 hPa Calm     100 % 0.00 in /  0 mm 81.0 W/m2 CLR
06:57 48.4 °F /  9.1 °C 48.4 °F /  9.1 °C 30.26 in /  1024.6 hPa Calm     100 % 0.00 in /  0 mm 21.0 W/m2 CLR
07:02 48.6 °F /  9.2 °C 48.6 °F /  9.2 °C 30.26 in /  1024.6 hPa Calm     100 % 0.00 in /  0 mm 2.5 W/m2 CLR
07:07 48.6 °F /  9.2 °C 48.6 °F /  9.2 °C 30.26 in /  1024.6 hPa Calm     100 % 0.00 in /  0 mm 73.0 W/m2 CLR
07:12 48.4 °F /  9.1 °C 48.4 °F /  9.1 °C 30.27 in /  1024.9 hPa Calm     100 % 0.00 in /  0 mm 12.0 W/m2 CLR
07:17 48.6 °F /  9.2 °C 48.6 °F /  9.2 °C 30.27 in /  1024.9 hPa Calm     100 % 0.00 in /  0 mm 4.4 W/m2 CLR
07:22 48.6 °F /  9.2 °C 48.6 °F /  9.2 °C 30.27 in /  1024.9 hPa Calm     100 % 0.00 in /  0 mm 7.8 W/m2 CLR
07:33 48.7 °F /  9.3 °C 48.7 °F /  9.3 °C 30.26 in /  1024.6 hPa Calm     100 % 0.00 in /  0 mm 8.3 W/m2 CLR
07:38 48.9 °F /  9.4 °C 48.9 °F /  9.4 °C 30.27 in /  1024.9 hPa Calm     100 % 0.00 in /  0 mm 10.1 W/m2 CLR
07:43 49.1 °F /  9.5 °C 49.1 °F /  9.5 °C 30.26 in /  1024.6 hPa Calm     100 % 0.00 in /  0 mm 133.0 W/m2 CLR
07:48 49.5 °F /  9.7 °C 49.5 °F /  9.7 °C 30.26 in /  1024.6 hPa Calm     100 % 0.00 in /  0 mm 11.5 W/m2 CLR
07:53 49.8 °F /  9.9 °C 49.8 °F /  9.9 °C 30.26 in /  1024.6 hPa Calm     100 % 0.00 in /  0 mm 14.2 W/m2 CLR
07:58 50.0 °F /  10 °C 50.0 °F /  10 °C 30.26 in /  1024.6 hPa Calm     100 % 0.00 in /  0 mm 14.3 W/m2 CLR
08:03 50.2 °F /  10.1 °C 50.2 °F /  10.1 °C 30.26 in /  1024.6 hPa Calm     100 % 0.00 in /  0 mm 27.6 W/m2 OVC
08:08 51.1 °F /  10.6 °C 51.1 °F /  10.6 °C 30.26 in /  1024.6 hPa Calm     100 % 0.00 in /  0 mm 58.7 W/m2 BKN
08:13 52.0 °F /  11.1 °C 52.0 °F /  11.1 °C 30.26 in /  1024.6 hPa Calm     100 % 0.00 in /  0 mm 46.5 W/m2 OVC
08:18 53.1 °F /  11.7 °C 53.1 °F /  11.7 °C 30.26 in /  1024.6 hPa Calm     100 % 0.00 in /  0 mm 32.0 W/m2 BKN
08:23 54.0 °F /  12.2 °C 54.0 °F /  12.2 °C 30.26 in /  1024.6 hPa Calm     100 % 0.00 in /  0 mm 69.9 W/m2 BKN
08:28 54.5 °F /  12.5 °C 54.5 °F /  12.5 °C 30.26 in /  1024.6 hPa Calm     100 % 0.00 in /  0 mm 80.0 W/m2 BKN
08:33 55.0 °F /  12.8 °C 55.0 °F /  12.8 °C 30.26 in /  1024.6 hPa Calm     100 % 0.00 in /  0 mm 34.0 W/m2 BKN
08:38 55.8 °F /  13.2 °C 55.8 °F /  13.2 °C 30.26 in /  1024.6 hPa Calm     100 % 0.00 in /  0 mm 53.0 W/m2 BKN
08:43 56.3 °F /  13.5 °C 56.3 °F /  13.5 °C 30.26 in /  1024.6 hPa Calm     100 % 0.00 in /  0 mm 90.7 W/m2 BKN
08:48 56.7 °F /  13.7 °C 56.7 °F /  13.7 °C 30.26 in /  1024.6 hPa Calm     100 % 0.00 in /  0 mm 119.0 W/m2 BKN
08:53 57.2 °F /  14 °C 57.2 °F /  14 °C 30.26 in /  1024.6 hPa Calm     100 % 0.00 in /  0 mm 162.0 W/m2 BKN
08:58 57.7 °F /  14.3 °C 57.7 °F /  14.3 °C 30.26 in /  1024.6 hPa Calm     100 % 0.00 in /  0 mm 97.3 W/m2 BKN
09:03 58.1 °F /  14.5 °C 58.1 °F /  14.5 °C 30.26 in /  1024.6 hPa NW 1.2 mph /  1.9 km/h 1.2 mph /  1.9 km/h 100 % 0.00 in /  0 mm 86.0 W/m2 BKN
09:08 58.8 °F /  14.9 °C 58.8 °F /  14.9 °C 30.27 in /  1024.9 hPa WNW 3.5 mph /  5.6 km/h 3.5 mph /  5.6 km/h 100 % 0.00 in /  0 mm 51.0 W/m2 BKN
09:13 59.5 °F /  15.3 °C 59.5 °F /  15.3 °C 30.26 in /  1024.6 hPa Calm     100 % 0.00 in /  0 mm 109.6 W/m2 BKN
09:18 59.5 °F /  15.3 °C 59.5 °F /  15.3 °C 30.27 in /  1024.9 hPa Calm     100 % 0.00 in /  0 mm 132.3 W/m2 BKN
09:23 59.7 °F /  15.4 °C 59.7 °F /  15.4 °C 30.27 in /  1024.9 hPa ESE 2.3 mph /  3.7 km/h 2.3 mph /  3.7 km/h 100 % 0.00 in /  0 mm 104.0 W/m2 BKN
09:28 59.9 °F /  15.5 °C 59.6 °F /  15.3 °C 30.27 in /  1024.9 hPa Calm     99 % 0.00 in /  0 mm 70.0 W/m2 BKN
09:33 60.1 °F /  15.6 °C 59.8 °F /  15.4 °C 30.27 in /  1024.9 hPa Calm     99 % 0.00 in /  0 mm 121.5 W/m2 BKN
09:38 60.3 °F /  15.7 °C 59.7 °F /  15.4 °C 30.27 in /  1024.9 hPa West 3.5 mph /  5.6 km/h   98 % 0.00 in /  0 mm 100.0 W/m2 BKN
09:43 60.4 °F /  15.8 °C 60.4 °F /  15.8 °C 30.27 in /  1024.9 hPa ESE 3.2 mph /  5.1 km/h 3.2 mph /  5.1 km/h 100 % 0.00 in /  0 mm 97.0 W/m2 BKN
09:48 61.0 °F /  16.1 °C 60.4 °F /  15.8 °C 30.27 in /  1024.9 hPa SSW 1.2 mph /  1.9 km/h 1.2 mph /  1.9 km/h 98 % 0.00 in /  0 mm 137.0 W/m2 BKN
09:53 61.2 °F /  16.2 °C 60.6 °F /  15.9 °C 30.27 in /  1024.9 hPa Calm     98 % 0.00 in /  0 mm 129.3 W/m2 BKN
09:58 61.2 °F /  16.2 °C 60.6 °F /  15.9 °C 30.28 in /  1025.3 hPa WNW 3.7 mph /  6 km/h 3.7 mph /  6 km/h 98 % 0.00 in /  0 mm 104.0 W/m2 OVC
10:03 61.0 °F /  16.1 °C 60.1 °F /  15.6 °C 30.27 in /  1024.9 hPa ENE 2.3 mph /  3.7 km/h 2.3 mph /  3.7 km/h 97 % 0.00 in /  0 mm 108.3 W/m2 OVC
10:08 61.0 °F /  16.1 °C 59.8 °F /  15.4 °C 30.28 in /  1025.3 hPa SW 0.3 mph /  0.5 km/h   96 % 0.00 in /  0 mm 112.5 W/m2 OVC
10:13 61.2 °F /  16.2 °C 59.7 °F /  15.4 °C 30.27 in /  1024.9 hPa SSE 1.2 mph /  1.9 km/h   95 % 0.00 in /  0 mm 89.0 W/m2 OVC
10:18 61.3 °F /  16.3 °C 60.2 °F /  15.7 °C 30.28 in /  1025.3 hPa Calm     96 % 0.00 in /  0 mm 123.5 W/m2 OVC
10:23 61.5 °F /  16.4 °C 60.7 °F /  15.9 °C 30.28 in /  1025.3 hPa East 1.2 mph /  1.9 km/h 1.2 mph /  1.9 km/h 97 % 0.00 in /  0 mm 164.3 W/m2 BKN
10:28 61.9 °F /  16.6 °C 61.0 °F /  16.1 °C 30.28 in /  1025.3 hPa WNW 4.4 mph /  7.1 km/h 4.4 mph /  7.1 km/h 97 % 0.00 in /  0 mm 97.0 W/m2 BKN
10:33 62.1 °F /  16.7 °C 60.6 °F /  15.9 °C 30.28 in /  1025.3 hPa WNW 5.7 mph /  9.2 km/h 5.7 mph /  9.2 km/h 95 % 0.00 in /  0 mm 101.0 W/m2 BKN
10:38 62.6 °F /  17 °C 60.2 °F /  15.7 °C 30.27 in /  1024.9 hPa East 1.2 mph /  1.9 km/h   92 % 0.00 in /  0 mm 240.9 W/m2 BKN
10:43 62.8 °F /  17.1 °C 60.1 °F /  15.6 °C 30.28 in /  1025.3 hPa Calm     91 % 0.00 in /  0 mm 210.9 W/m2 BKN
10:48 63.0 °F /  17.2 °C 60.3 °F /  15.7 °C 30.28 in /  1025.3 hPa SSW 3.5 mph /  5.6 km/h 3.5 mph /  5.6 km/h 91 % 0.00 in /  0 mm 123.0 W/m2 BKN
10:53 63.3 °F /  17.4 °C 60.3 °F /  15.7 °C 30.27 in /  1024.9 hPa SW 1.2 mph /  1.9 km/h 1.2 mph /  1.9 km/h 90 % 0.00 in /  0 mm 319.3 W/m2 BKN
10:58 64.0 °F /  17.8 °C 61.0 °F /  16.1 °C 30.27 in /  1024.9 hPa WNW 3.5 mph /  5.6 km/h 3.5 mph /  5.6 km/h 90 % 0.00 in /  0 mm 624.0 W/m2 CLR
11:03 64.4 °F /  18 °C 60.8 °F /  16 °C 30.27 in /  1024.9 hPa NNE 4.6 mph /  7.4 km/h 4.6 mph /  7.4 km/h 88 % 0.00 in /  0 mm 393.0 W/m2 BKN
11:08 64.2 °F /  17.9 °C 61.5 °F /  16.4 °C 30.27 in /  1024.9 hPa WNW 2.3 mph /  3.7 km/h 2.3 mph /  3.7 km/h 91 % 0.00 in /  0 mm 264.4 W/m2 BKN
11:13 63.9 °F /  17.7 °C 60.6 °F /  15.9 °C 30.27 in /  1024.9 hPa South 4.8 mph /  7.7 km/h 4.8 mph /  7.7 km/h 89 % 0.00 in /  0 mm 199.8 W/m2 BKN
11:18 63.9 °F /  17.7 °C 61.5 °F /  16.4 °C 30.27 in /  1024.9 hPa WNW 3.5 mph /  5.6 km/h 3.5 mph /  5.6 km/h 92 % 0.00 in /  0 mm 544.0 W/m2 BKN
11:23 63.9 °F /  17.7 °C 60.9 °F /  16.1 °C 30.27 in /  1024.9 hPa SSW 2.3 mph /  3.7 km/h 2.3 mph /  3.7 km/h 90 % 0.00 in /  0 mm 288.4 W/m2 BKN
11:33 64.6 °F /  18.1 °C 60.9 °F /  16.1 °C 30.27 in /  1024.9 hPa West 2.3 mph /  3.7 km/h 2.3 mph /  3.7 km/h 88 % 0.00 in /  0 mm 148.0 W/m2 SCT
11:38 64.9 °F /  18.3 °C 61.3 °F /  16.3 °C 30.27 in /  1024.9 hPa ESE 2.9 mph /  4.7 km/h 2.9 mph /  4.7 km/h 88 % 0.00 in /  0 mm 176.0 W/m2 BKN
11:43 64.6 °F /  18.1 °C 60.9 °F /  16.1 °C 30.27 in /  1024.9 hPa WSW 0.8 mph /  1.3 km/h   88 % 0.00 in /  0 mm 532.5 W/m2 SCT
11:48 65.3 °F /  18.5 °C 61.7 °F /  16.5 °C 30.27 in /  1024.9 hPa Calm     88 % 0.00 in /  0 mm 701.0 W/m2 CLR
11:53 66.0 °F /  18.9 °C 61.7 °F /  16.5 °C 30.27 in /  1024.9 hPa SE 0.7 mph /  1.1 km/h 0.7 mph /  1.1 km/h 86 % 0.00 in /  0 mm 726.0 W/m2 CLR
11:58 66.0 °F /  18.9 °C 61.0 °F /  16.1 °C 30.27 in /  1024.9 hPa West 1.2 mph /  1.9 km/h   84 % 0.00 in /  0 mm 304.0 W/m2 BKN
12:03 66.0 °F /  18.9 °C 61.0 °F /  16.1 °C 30.27 in /  1024.9 hPa SE 0.8 mph /  1.3 km/h 0.8 mph /  1.3 km/h 84 % 0.00 in /  0 mm 174.0 W/m2 CLR
12:08 66.2 °F /  19 °C 60.9 °F /  16.1 °C 30.26 in /  1024.6 hPa SSE 5.8 mph /  9.3 km/h 5.8 mph /  9.3 km/h 83 % 0.00 in /  0 mm 114.0 W/m2 CLR
12:13 66.6 °F /  19.2 °C 60.5 °F /  15.8 °C 30.26 in /  1024.6 hPa ESE 4.8 mph /  7.7 km/h 4.8 mph /  7.7 km/h 81 % 0.00 in /  0 mm 154.0 W/m2 CLR
12:18 67.1 °F /  19.5 °C 61.4 °F /  16.3 °C 30.27 in /  1024.9 hPa SSW 5.8 mph /  9.3 km/h 5.8 mph /  9.3 km/h 82 % 0.00 in /  0 mm 732.0 W/m2 CLR
12:23 67.5 °F /  19.7 °C 60.7 °F /  15.9 °C 30.26 in /  1024.6 hPa East 4.6 mph /  7.4 km/h 4.6 mph /  7.4 km/h 79 % 0.00 in /  0 mm 304.0 W/m2 CLR
12:28 67.8 °F /  19.9 °C 61.1 °F /  16.2 °C 30.26 in /  1024.6 hPa WSW 1.9 mph /  3.1 km/h 1.9 mph /  3.1 km/h 79 % 0.00 in /  0 mm 292.0 W/m2 CLR
12:33 68.0 °F /  20 °C 61.2 °F /  16.2 °C 30.26 in /  1024.6 hPa SSW 3.5 mph /  5.6 km/h   79 % 0.00 in /  0 mm 742.0 W/m2 CLR
12:38 68.7 °F /  20.4 °C 61.6 °F /  16.4 °C 30.26 in /  1024.6 hPa ESE 6.9 mph /  11.1 km/h 6.9 mph /  11.1 km/h 78 % 0.00 in /  0 mm 365.0 W/m2 CLR
12:43 67.8 °F /  19.9 °C 61.1 °F /  16.2 °C 30.26 in /  1024.6 hPa ENE 3.5 mph /  5.6 km/h 3.5 mph /  5.6 km/h 79 % 0.00 in /  0 mm 112.0 W/m2 CLR
12:48 68.5 °F /  20.3 °C 61.4 °F /  16.3 °C 30.26 in /  1024.6 hPa ESE 3.5 mph /  5.6 km/h 3.5 mph /  5.6 km/h 78 % 0.00 in /  0 mm 405.3 W/m2 BKN
12:53 67.8 °F /  19.9 °C 60.3 °F /  15.7 °C 30.26 in /  1024.6 hPa East 4.6 mph /  7.4 km/h 4.6 mph /  7.4 km/h 77 % 0.00 in /  0 mm 750.0 W/m2 CLR
12:58 67.8 °F /  19.9 °C 60.7 °F /  15.9 °C 30.26 in /  1024.6 hPa NW 4.3 mph /  6.9 km/h 4.3 mph /  6.9 km/h 78 % 0.00 in /  0 mm 172.0 W/m2 CLR
13:03 68.0 °F /  20 °C 59.8 °F /  15.4 °C 30.26 in /  1024.6 hPa WNW 6.9 mph /  11.1 km/h 6.9 mph /  11.1 km/h 75 % 0.00 in /  0 mm 752.0 W/m2 CLR
13:08 68.0 °F /  20 °C 61.2 °F /  16.2 °C 30.26 in /  1024.6 hPa WSW 5.4 mph /  8.7 km/h 5.4 mph /  8.7 km/h 79 % 0.00 in /  0 mm 752.0 W/m2 CLR
13:13 67.8 °F /  19.9 °C 60.0 °F /  15.6 °C 30.26 in /  1024.6 hPa SE 1.7 mph /  2.7 km/h 1.7 mph /  2.7 km/h 76 % 0.00 in /  0 mm 377.0 W/m2 BKN
13:18 68.2 °F /  20.1 °C 60.3 °F /  15.7 °C 30.26 in /  1024.6 hPa WNW 2.3 mph /  3.7 km/h 2.3 mph /  3.7 km/h 76 % 0.00 in /  0 mm 751.0 W/m2 CLR
13:23 68.7 °F /  20.4 °C 61.2 °F /  16.2 °C 30.25 in /  1024.3 hPa West 3.5 mph /  5.6 km/h 3.5 mph /  5.6 km/h 77 % 0.00 in /  0 mm 750.0 W/m2 CLR
13:28 68.4 °F /  20.2 °C 60.5 °F /  15.8 °C 30.25 in /  1024.3 hPa Calm     76 % 0.00 in /  0 mm 292.0 W/m2 CLR
13:33 68.9 °F /  20.5 °C 62.1 °F /  16.7 °C 30.25 in /  1024.3 hPa SSE 8.6 mph /  13.8 km/h 8.6 mph /  13.8 km/h 79 % 0.00 in /  0 mm 747.0 W/m2 CLR
13:38 68.9 °F /  20.5 °C 61.0 °F /  16.1 °C 30.25 in /  1024.3 hPa SSW 1.4 mph /  2.3 km/h 1.4 mph /  2.3 km/h 76 % 0.00 in /  0 mm 745.0 W/m2 CLR
13:43 68.9 °F /  20.5 °C 61.0 °F /  16.1 °C 30.25 in /  1024.3 hPa SE 2.3 mph /  3.7 km/h   76 % 0.00 in /  0 mm 477.9 W/m2 BKN
13:48 68.9 °F /  20.5 °C 61.0 °F /  16.1 °C 30.25 in /  1024.3 hPa Calm     76 % 0.00 in /  0 mm 331.0 W/m2 CLR
13:53 68.9 °F /  20.5 °C 61.8 °F /  16.6 °C 30.25 in /  1024.3 hPa SW 3.6 mph /  5.8 km/h 3.6 mph /  5.8 km/h 78 % 0.00 in /  0 mm 262.7 W/m2 BKN
13:58 68.9 °F /  20.5 °C 62.5 °F /  16.9 °C 30.25 in /  1024.3 hPa West 1.2 mph /  1.9 km/h 1.2 mph /  1.9 km/h 80 % 0.00 in /  0 mm 732.0 W/m2 CLR
14:03 70.0 °F /  21.1 °C 62.1 °F /  16.7 °C 30.25 in /  1024.3 hPa SW 4.6 mph /  7.4 km/h   76 % 0.00 in /  0 mm 270.0 W/m2 CLR
14:08 69.8 °F /  21 °C 61.5 °F /  16.4 °C 30.25 in /  1024.3 hPa Calm     75 % 0.00 in /  0 mm 723.0 W/m2 CLR
14:13 70.2 °F /  21.2 °C 62.2 °F /  16.8 °C 30.25 in /  1024.3 hPa SSW 3.5 mph /  5.6 km/h 3.5 mph /  5.6 km/h 76 % 0.00 in /  0 mm 718.0 W/m2 CLR
14:18 69.6 °F /  20.9 °C 61.7 °F /  16.5 °C 30.24 in /  1023.9 hPa NW 1.7 mph /  2.7 km/h 1.7 mph /  2.7 km/h 76 % 0.00 in /  0 mm 199.0 W/m2 OVC
14:23 70.2 °F /  21.2 °C 61.9 °F /  16.6 °C 30.24 in /  1023.9 hPa SSE 0.3 mph /  0.5 km/h   75 % 0.00 in /  0 mm 707.0 W/m2 CLR
14:28 69.8 °F /  21 °C 60.4 °F /  15.8 °C 30.23 in /  1023.6 hPa NNW 3.2 mph /  5.1 km/h 3.2 mph /  5.1 km/h 72 % 0.00 in /  0 mm 238.1 W/m2 BKN
14:33 69.6 °F /  20.9 °C 61.7 °F /  16.5 °C 30.23 in /  1023.6 hPa SSE 1.2 mph /  1.9 km/h   76 % 0.00 in /  0 mm 120.0 W/m2 BKN
14:38 70.2 °F /  21.2 °C 63.0 °F /  17.2 °C 30.23 in /  1023.6 hPa NNE 2.3 mph /  3.7 km/h 2.3 mph /  3.7 km/h 78 % 0.00 in /  0 mm 164.0 W/m2 CLR
14:43 69.8 °F /  21 °C 61.9 °F /  16.6 °C 30.23 in /  1023.6 hPa ESE 1.2 mph /  1.9 km/h 1.2 mph /  1.9 km/h 76 % 0.00 in /  0 mm 680.0 W/m2 CLR
14:48 70.7 °F /  21.5 °C 62.0 °F /  16.7 °C 30.22 in /  1023.2 hPa SSW 2.3 mph /  3.7 km/h 2.3 mph /  3.7 km/h 74 % 0.00 in /  0 mm 480.0 W/m2 CLR
14:53 70.5 °F /  21.4 °C 62.6 °F /  17 °C 30.22 in /  1023.2 hPa SW 3.7 mph /  6 km/h 3.7 mph /  6 km/h 76 % 0.00 in /  0 mm 301.0 W/m2 OVC
14:58 69.1 °F /  20.6 °C 61.6 °F /  16.4 °C 30.22 in /  1023.2 hPa SE 6.6 mph /  10.6 km/h 6.6 mph /  10.6 km/h 77 % 0.00 in /  0 mm 199.0 W/m2 BKN
15:03 69.3 °F /  20.7 °C 61.4 °F /  16.3 °C 30.22 in /  1023.2 hPa North 1.2 mph /  1.9 km/h   76 % 0.00 in /  0 mm 417.0 W/m2 CLR
15:08 69.8 °F /  21 °C 61.9 °F /  16.6 °C 30.22 in /  1023.2 hPa WSW 2.3 mph /  3.7 km/h 2.3 mph /  3.7 km/h 76 % 0.00 in /  0 mm 309.0 W/m2 FEW
15:13 70.2 °F /  21.2 °C 61.9 °F /  16.6 °C 30.22 in /  1023.2 hPa Calm     75 % 0.00 in /  0 mm 293.2 W/m2 BKN
15:18 69.6 °F /  20.9 °C 62.1 °F /  16.7 °C 30.22 in /  1023.2 hPa Calm     77 % 0.00 in /  0 mm 233.3 W/m2 BKN
15:24 69.6 °F /  20.9 °C 62.5 °F /  16.9 °C 30.22 in /  1023.2 hPa West 3.5 mph /  5.6 km/h 3.5 mph /  5.6 km/h 78 % 0.00 in /  0 mm 291.0 W/m2 BKN
15:29 69.8 °F /  21 °C 61.9 °F /  16.6 °C 30.21 in /  1022.9 hPa West 1.2 mph /  1.9 km/h   76 % 0.00 in /  0 mm 236.0 W/m2 CLR
15:34 70.2 °F /  21.2 °C 62.6 °F /  17 °C 30.21 in /  1022.9 hPa WSW 1.2 mph /  1.9 km/h   77 % 0.00 in /  0 mm 228.6 W/m2 BKN
15:39 69.6 °F /  20.9 °C 61.7 °F /  16.5 °C 30.21 in /  1022.9 hPa NW 1.9 mph /  3.1 km/h 1.9 mph /  3.1 km/h 76 % 0.00 in /  0 mm 241.0 W/m2 OVC
15:44 70.5 °F /  21.4 °C 61.4 °F /  16.3 °C 30.21 in /  1022.9 hPa West 1.2 mph /  1.9 km/h 1.2 mph /  1.9 km/h 73 % 0.00 in /  0 mm 241.0 W/m2 CLR
15:49 71.1 °F /  21.7 °C 62.7 °F /  17.1 °C 30.21 in /  1022.9 hPa Calm     75 % 0.00 in /  0 mm 119.4 W/m2 OVC
15:54 70.2 °F /  21.2 °C 62.6 °F /  17 °C 30.21 in /  1022.9 hPa South 0.6 mph /  1 km/h   77 % 0.00 in /  0 mm 222.0 W/m2 BKN
15:59 69.6 °F /  20.9 °C 62.1 °F /  16.7 °C 30.21 in /  1022.9 hPa Calm     77 % 0.00 in /  0 mm 227.0 W/m2 OVC
16:04 69.8 °F /  21 °C 61.1 °F /  16.2 °C 30.21 in /  1022.9 hPa WNW 2.6 mph /  4.2 km/h 2.6 mph /  4.2 km/h 74 % 0.00 in /  0 mm 495.2 W/m2 FEW
16:14 69.8 °F /  21 °C 61.9 °F /  16.6 °C 30.20 in /  1022.6 hPa NW 2.3 mph /  3.7 km/h 2.3 mph /  3.7 km/h 76 % 0.00 in /  0 mm 186.0 W/m2 BKN
16:19 69.8 °F /  21 °C 62.6 °F /  17 °C 30.20 in /  1022.6 hPa WSW 2.9 mph /  4.7 km/h 2.9 mph /  4.7 km/h 78 % 0.00 in /  0 mm 68.0 W/m2 OVC
16:24 69.1 °F /  20.6 °C 62.3 °F /  16.8 °C 30.20 in /  1022.6 hPa Calm     79 % 0.00 in /  0 mm 61.4 W/m2 OVC
16:29 68.7 °F /  20.4 °C 63.3 °F /  17.4 °C 30.19 in /  1022.2 hPa Calm     83 % 0.00 in /  0 mm 212.0 W/m2 OVC
16:34 69.3 °F /  20.7 °C 62.5 °F /  16.9 °C 30.19 in /  1022.2 hPa Calm     79 % 0.00 in /  0 mm 63.0 W/m2 OVC
16:39 69.3 °F /  20.7 °C 62.1 °F /  16.7 °C 30.19 in /  1022.2 hPa Calm     78 % 0.00 in /  0 mm 53.5 W/m2 OVC
16:44 69.4 °F /  20.8 °C 62.3 °F /  16.8 °C 30.19 in /  1022.2 hPa SE 1.5 mph /  2.4 km/h 1.5 mph /  2.4 km/h 78 % 0.00 in /  0 mm 59.7 W/m2 OVC
16:49 69.8 °F /  21 °C 60.8 °F /  16 °C 30.19 in /  1022.2 hPa WSW 5.8 mph /  9.3 km/h 5.8 mph /  9.3 km/h 73 % 0.00 in /  0 mm 186.0 W/m2 OVC
16:54 70.2 °F /  21.2 °C 61.5 °F /  16.4 °C 30.19 in /  1022.2 hPa Calm     74 % 0.00 in /  0 mm 66.4 W/m2 OVC
16:59 70.3 °F /  21.3 °C 60.5 °F /  15.8 °C 30.19 in /  1022.2 hPa SSW 5.8 mph /  9.3 km/h 5.8 mph /  9.3 km/h 71 % 0.00 in /  0 mm 63.3 W/m2 OVC
17:04 70.2 °F /  21.2 °C 62.2 °F /  16.8 °C 30.19 in /  1022.2 hPa SSW 0.6 mph /  1 km/h 0.6 mph /  1 km/h 76 % 0.00 in /  0 mm 57.5 W/m2 OVC
17:09 70.2 °F /  21.2 °C 61.1 °F /  16.2 °C 30.19 in /  1022.2 hPa Calm     73 % 0.00 in /  0 mm 83.3 W/m2 OVC
17:14 70.3 °F /  21.3 °C 61.3 °F /  16.3 °C 30.18 in /  1021.9 hPa Calm     73 % 0.00 in /  0 mm 48.4 W/m2 OVC
17:19 70.2 °F /  21.2 °C 61.5 °F /  16.4 °C 30.18 in /  1021.9 hPa SE 1.2 mph /  1.9 km/h 1.2 mph /  1.9 km/h 74 % 0.00 in /  0 mm 34.0 W/m2 OVC
17:24 69.3 °F /  20.7 °C 61.7 °F /  16.5 °C 30.18 in /  1021.9 hPa SW 1.2 mph /  1.9 km/h   77 % 0.00 in /  0 mm 29.4 W/m2 OVC
17:29 69.3 °F /  20.7 °C 62.8 °F /  17.1 °C 30.18 in /  1021.9 hPa Calm     80 % 0.00 in /  0 mm 62.0 W/m2 OVC
17:34 69.1 °F /  20.6 °C 61.9 °F /  16.6 °C 30.17 in /  1021.6 hPa Calm     78 % 0.00 in /  0 mm 24.0 W/m2 OVC
17:39 68.0 °F /  20 °C 63.0 °F /  17.2 °C 30.17 in /  1021.6 hPa Calm     84 % 0.00 in /  0 mm 40.0 W/m2 OVC
17:44 68.0 °F /  20 °C 63.0 °F /  17.2 °C 30.17 in /  1021.6 hPa Calm     84 % 0.00 in /  0 mm 38.4 W/m2 OVC
17:49 68.5 °F /  20.3 °C 61.8 °F /  16.6 °C 30.17 in /  1021.6 hPa Calm     79 % 0.00 in /  0 mm 151.0 W/m2 OVC
17:54 68.0 °F /  20 °C 61.6 °F /  16.4 °C 30.17 in /  1021.6 hPa SSE 1.4 mph /  2.3 km/h 1.4 mph /  2.3 km/h 80 % 0.00 in /  0 mm 20.2 W/m2 OVC
17:59 68.2 °F /  20.1 °C 61.8 °F /  16.6 °C 30.17 in /  1021.6 hPa SSE 1.2 mph /  1.9 km/h   80 % 0.00 in /  0 mm 20.0 W/m2 OVC
18:04 67.8 °F /  19.9 °C 61.8 °F /  16.6 °C 30.17 in /  1021.6 hPa South 0.7 mph /  1.1 km/h   81 % 0.00 in /  0 mm 41.0 W/m2 OVC
18:10 67.3 °F /  19.6 °C 61.9 °F /  16.6 °C 30.17 in /  1021.6 hPa Calm     83 % 0.00 in /  0 mm 9.1 W/m2 OVC
18:15 66.7 °F /  19.3 °C 62.4 °F /  16.9 °C 30.17 in /  1021.6 hPa Calm     86 % 0.00 in /  0 mm 12.5 W/m2 OVC
18:20 67.1 °F /  19.5 °C 60.7 °F /  15.9 °C 30.16 in /  1021.2 hPa SSE 4.6 mph /  7.4 km/h 4.6 mph /  7.4 km/h 80 % 0.00 in /  0 mm 106.0 W/m2 OVC
18:25 67.1 °F /  19.5 °C 61.4 °F /  16.3 °C 30.16 in /  1021.2 hPa Calm     82 % 0.00 in /  0 mm 9.8 W/m2 OVC
18:30 66.7 °F /  19.3 °C 61.4 °F /  16.3 °C 30.16 in /  1021.2 hPa East 2.6 mph /  4.2 km/h 2.6 mph /  4.2 km/h 83 % 0.00 in /  0 mm 38.0 W/m2 OVC
18:35 66.4 °F /  19.1 °C 61.4 °F /  16.3 °C 30.15 in /  1020.9 hPa SE 3.5 mph /  5.6 km/h 3.5 mph /  5.6 km/h 84 % 0.00 in /  0 mm 37.0 W/m2 OVC
18:40 66.0 °F /  18.9 °C 60.7 °F /  15.9 °C 30.15 in /  1020.9 hPa SE 1.2 mph /  1.9 km/h   83 % 0.00 in /  0 mm 40.0 W/m2 OVC
18:45 65.7 °F /  18.7 °C 60.7 °F /  15.9 °C 30.15 in /  1020.9 hPa WSW 2.8 mph /  4.5 km/h 2.8 mph /  4.5 km/h 84 % 0.00 in /  0 mm 4.8 W/m2 OVC
18:50 65.8 °F /  18.8 °C 60.9 °F /  16.1 °C 30.15 in /  1020.9 hPa South 0.7 mph /  1.1 km/h 0.7 mph /  1.1 km/h 84 % 0.00 in /  0 mm 34.0 W/m2 OVC
18:55 65.3 °F /  18.5 °C 61.3 °F /  16.3 °C 30.15 in /  1020.9 hPa SE 4.6 mph /  7.4 km/h 4.6 mph /  7.4 km/h 87 % 0.00 in /  0 mm 43.0 W/m2 OVC
19:00 65.1 °F /  18.4 °C 60.8 °F /  16 °C 30.15 in /  1020.9 hPa South 2.3 mph /  3.7 km/h 2.3 mph /  3.7 km/h 86 % 0.00 in /  0 mm 3.1 W/m2 CLR
19:05 64.4 °F /  18 °C 60.8 °F /  16 °C 30.15 in /  1020.9 hPa Calm     88 % 0.00 in /  0 mm 39.0 W/m2 CLR
19:10 64.2 °F /  17.9 °C 60.3 °F /  15.7 °C 30.15 in /  1020.9 hPa Calm     87 % 0.00 in /  0 mm 46.0 W/m2 CLR
19:15 63.5 °F /  17.5 °C 60.5 °F /  15.8 °C 30.15 in /  1020.9 hPa Calm     90 % 0.00 in /  0 mm 1.6 W/m2 CLR
19:20 63.3 °F /  17.4 °C 60.3 °F /  15.7 °C 30.15 in /  1020.9 hPa Calm     90 % 0.00 in /  0 mm 33.0 W/m2 CLR
19:25 63.1 °F /  17.3 °C 59.8 °F /  15.4 °C 30.15 in /  1020.9 hPa Calm     89 % 0.00 in /  0 mm 25.0 W/m2 CLR
19:30 63.0 °F /  17.2 °C 59.7 °F /  15.4 °C 30.16 in /  1021.2 hPa Calm     89 % 0.00 in /  0 mm 25.0 W/m2 CLR
19:35 62.6 °F /  17 °C 59.6 °F /  15.3 °C 30.15 in /  1020.9 hPa Calm     90 % 0.00 in /  0 mm 0.4 W/m2 CLR
19:40 62.1 °F /  16.7 °C 59.7 °F /  15.4 °C 30.16 in /  1021.2 hPa Calm     92 % 0.00 in /  0 mm 19.0 W/m2 CLR
19:45 61.9 °F /  16.6 °C 59.8 °F /  15.4 °C 30.16 in /  1021.2 hPa Calm     93 % 0.00 in /  0 mm 13.0 W/m2 CLR
19:50 61.5 °F /  16.4 °C 59.5 °F /  15.3 °C 30.16 in /  1021.2 hPa Calm     93 % 0.00 in /  0 mm 0.0 W/m2 CLR
19:55 61.2 °F /  16.2 °C 59.4 °F /  15.2 °C 30.16 in /  1021.2 hPa Calm     94 % 0.00 in /  0 mm 16.0 W/m2 CLR
20:00 61.0 °F /  16.1 °C 59.2 °F /  15.1 °C 30.16 in /  1021.2 hPa Calm     94 % 0.00 in /  0 mm 9.0 W/m2 CLR
20:05 60.8 °F /  16 °C 58.8 °F /  14.9 °C 30.16 in /  1021.2 hPa Calm     93 % 0.00 in /  0 mm 0.0 W/m2 CLR
20:10 60.6 °F /  15.9 °C 58.9 °F /  14.9 °C 30.16 in /  1021.2 hPa Calm     94 % 0.00 in /  0 mm 0.0 W/m2 CLR
20:15 60.3 °F /  15.7 °C 59.1 °F /  15.1 °C 30.17 in /  1021.6 hPa Calm     96 % 0.00 in /  0 mm 7.0 W/m2 CLR
20:20 59.9 °F /  15.5 °C 58.8 °F /  14.9 °C 30.16 in /  1021.2 hPa Calm     96 % 0.00 in /  0 mm 0.0 W/m2 CLR
20:25 59.7 °F /  15.4 °C 58.9 °F /  14.9 °C 30.16 in /  1021.2 hPa Calm     97 % 0.00 in /  0 mm 0.0 W/m2 CLR
20:30 59.4 °F /  15.2 °C 58.8 °F /  14.9 °C 30.16 in /  1021.2 hPa Calm     98 % 0.00 in /  0 mm 12.0 W/m2 CLR
20:35 59.0 °F /  15 °C 58.4 °F /  14.7 °C 30.16 in /  1021.2 hPa Calm     98 % 0.00 in /  0 mm 7.0 W/m2 CLR
20:40 59.0 °F /  15 °C 59.0 °F /  15 °C 30.17 in /  1021.6 hPa Calm     100 % 0.00 in /  0 mm 0.0 W/m2 CLR
20:45 58.8 °F /  14.9 °C 58.8 °F /  14.9 °C 30.16 in /  1021.2 hPa Calm     100 % 0.00 in /  0 mm 0.0 W/m2 CLR
20:50 58.8 °F /  14.9 °C 58.5 °F /  14.7 °C 30.17 in /  1021.6 hPa Calm     99 % 0.00 in /  0 mm 7.0 W/m2 CLR
20:55 58.5 °F /  14.7 °C 58.5 °F /  14.7 °C 30.17 in /  1021.6 hPa Calm     100 % 0.00 in /  0 mm 0.0 W/m2 CLR
21:00 58.5 °F /  14.7 °C 58.5 °F /  14.7 °C 30.17 in /  1021.6 hPa Calm     100 % 0.00 in /  0 mm 7.0 W/m2 CLR
21:05 58.3 °F /  14.6 °C 58.3 °F /  14.6 °C 30.17 in /  1021.6 hPa Calm     100 % 0.00 in /  0 mm 7.0 W/m2 CLR
21:10 57.9 °F /  14.4 °C 57.9 °F /  14.4 °C 30.17 in /  1021.6 hPa Calm     100 % 0.00 in /  0 mm 11.0 W/m2 CLR
21:15 57.9 °F /  14.4 °C 57.9 °F /  14.4 °C 30.17 in /  1021.6 hPa Calm     100 % 0.00 in /  0 mm 0.0 W/m2 CLR
21:20 57.7 °F /  14.3 °C 57.7 °F /  14.3 °C 30.17 in /  1021.6 hPa Calm     100 % 0.00 in /  0 mm 7.0 W/m2 CLR
21:25 57.6 °F /  14.2 °C 57.6 °F /  14.2 °C 30.17 in /  1021.6 hPa Calm     100 % 0.00 in /  0 mm 6.0 W/m2 CLR
21:35 57.2 °F /  14 °C 57.2 °F /  14 °C 30.17 in /  1021.6 hPa Calm     100 % 0.00 in /  0 mm 0.0 W/m2 CLR
Wether-Above
Compliments of Weather Underground - 2.25 mb
Welcome to Weather-Above
Cheddleton weather station supplies various organisations with data from our weather station one of them is the weather Underground this information displayed here is coming from the weather Underground server 

If any information is used please acknowledge the source to www weather-above.com or weather Underground